createdAt,value
2023-02-15T00:02:02.289Z,4.11
2023-02-15T00:04:47.281Z,4.15
2023-02-15T00:07:19.094Z,4.24
2023-02-15T00:09:49.694Z,4.23
2023-02-15T00:12:17.552Z,4.12
2023-02-15T00:14:44.890Z,4.22
2023-02-15T00:17:12.005Z,4.37
2023-02-15T00:19:38.984Z,4.18
2023-02-15T00:22:05.877Z,4.10
2023-02-15T00:24:33.504Z,4.14
2023-02-15T00:27:00.347Z,4.10
2023-02-15T00:29:27.533Z,3.92
2023-02-15T00:31:54.611Z,3.88
2023-02-15T00:34:26.185Z,3.80
2023-02-15T00:36:53.346Z,3.81
2023-02-15T00:39:20.622Z,3.72
2023-02-15T00:41:48.140Z,3.62
2023-02-15T00:44:15.532Z,3.73
2023-02-15T00:46:42.490Z,3.79
2023-02-15T00:49:11.340Z,3.67
2023-02-15T00:51:38.623Z,3.58
2023-02-15T00:54:05.738Z,3.56
2023-02-15T00:56:32.716Z,3.57
2023-02-15T00:58:59.655Z,3.35
2023-02-15T01:01:27.013Z,3.37
2023-02-15T01:03:54.281Z,3.41
2023-02-15T01:06:21.342Z,3.42
2023-02-15T01:08:48.579Z,3.32
2023-02-15T01:11:50.260Z,3.30
2023-02-15T01:14:09.730Z,3.32
2023-02-15T01:16:39.041Z,3.27
2023-02-15T01:19:06.969Z,3.22
2023-02-15T01:21:35.558Z,3.24
2023-02-15T01:24:03.360Z,3.34
2023-02-15T01:26:30.450Z,3.20
2023-02-15T01:29:00.893Z,3.17
2023-02-15T01:31:27.900Z,3.17
2023-02-15T01:33:54.863Z,3.17
2023-02-15T01:36:21.746Z,3.09
2023-02-15T01:38:48.805Z,3.08
2023-02-15T01:41:21.601Z,3.10
2023-02-15T01:44:02.749Z,3.02
2023-02-15T01:46:45.608Z,2.98
2023-02-15T01:49:20.649Z,2.97
2023-02-15T01:51:53.692Z,2.88
2023-02-15T01:54:28.752Z,2.88
2023-02-15T01:57:03.645Z,2.85
2023-02-15T01:59:33.466Z,2.81
2023-02-15T02:02:03.019Z,2.73
2023-02-15T02:04:41.100Z,2.67
2023-02-15T02:07:10.582Z,2.68
2023-02-15T02:09:38.730Z,2.67
2023-02-15T02:12:06.233Z,2.58
2023-02-15T02:14:33.402Z,2.58
2023-02-15T02:17:28.534Z,2.53
2023-02-15T02:19:58.506Z,2.56
2023-02-15T02:22:50.351Z,2.49
2023-02-15T02:25:50.692Z,2.57
2023-02-15T02:28:55.049Z,2.50
2023-02-15T02:31:38.410Z,2.39
2023-02-15T02:34:23.630Z,2.33
2023-02-15T02:37:02.609Z,2.37
2023-02-15T02:39:35.492Z,2.30
2023-02-15T02:42:08.404Z,2.25
2023-02-15T02:44:45.537Z,2.36
2023-02-15T02:47:21.610Z,2.31
2023-02-15T02:49:49.581Z,2.24
2023-02-15T02:52:36.877Z,2.27
2023-02-15T02:55:08.164Z,2.33
2023-02-15T02:57:38.272Z,2.29
2023-02-15T03:00:07.336Z,2.25
2023-02-15T03:02:39.501Z,2.21
2023-02-15T03:05:13.057Z,2.22
2023-02-15T03:07:42.241Z,2.18
2023-02-15T03:10:11.040Z,2.20
2023-02-15T03:12:41.676Z,2.20
2023-02-15T03:27:53.645Z,1.91
2023-02-15T03:30:24.285Z,1.96
2023-02-15T03:32:52.778Z,2.00
2023-02-15T03:35:25.690Z,2.10
2023-02-15T03:37:57.506Z,2.20
2023-02-15T03:40:48.650Z,2.13
2023-02-15T03:43:28.837Z,2.21
2023-02-15T03:46:01.470Z,2.35
2023-02-15T03:48:37.831Z,2.29
2023-02-15T03:51:29.138Z,2.30
2023-02-15T03:53:58.382Z,2.30
2023-02-15T03:56:25.782Z,2.29
2023-02-15T03:59:11.038Z,2.20
2023-02-15T04:02:00.021Z,2.25
2023-02-15T04:04:40.044Z,2.24
2023-02-15T04:07:09.415Z,2.10
2023-02-15T04:09:55.402Z,2.23
2023-02-15T04:12:22.459Z,2.13
2023-02-15T04:15:07.782Z,2.04
2023-02-15T04:17:36.781Z,1.96
2023-02-15T04:20:22.190Z,1.99
2023-02-15T04:23:07.534Z,1.92
2023-02-15T04:25:34.360Z,1.96
2023-02-15T04:28:01.205Z,1.92
2023-02-15T04:30:28.158Z,1.91
2023-02-15T04:32:58.214Z,1.97
2023-02-15T04:35:25.505Z,1.95
2023-02-15T04:37:52.371Z,1.99
2023-02-15T04:40:19.843Z,2.01
2023-02-15T04:42:50.109Z,1.88
2023-02-15T04:45:18.211Z,1.94
2023-02-15T04:47:45.209Z,2.07
2023-02-15T04:50:12.379Z,1.97
2023-02-15T04:52:40.071Z,1.96
2023-02-15T04:55:07.561Z,1.99
2023-02-15T04:57:34.418Z,1.93
2023-02-15T05:00:01.576Z,1.94
2023-02-15T05:02:28.547Z,2.02
2023-02-15T05:04:55.473Z,2.06
2023-02-15T05:07:22.351Z,2.07
2023-02-15T05:09:49.112Z,2.02
2023-02-15T05:12:15.952Z,2.01
2023-02-15T05:14:42.879Z,2.17
2023-02-15T05:17:09.844Z,2.14
2023-02-15T05:19:36.669Z,2.22
2023-02-15T05:22:03.505Z,2.22
2023-02-15T05:24:48.889Z,2.09
2023-02-15T05:27:34.591Z,2.07
2023-02-15T05:30:01.547Z,2.17
2023-02-15T05:32:28.647Z,2.15
2023-02-15T05:34:55.546Z,2.15
2023-02-15T05:37:22.420Z,2.32
2023-02-15T05:39:49.240Z,2.47
2023-02-15T05:42:16.130Z,2.48
2023-02-15T05:44:43.170Z,2.60
2023-02-15T05:47:10.014Z,2.75
2023-02-15T05:49:37.134Z,2.96
2023-02-15T05:52:04.756Z,2.75
2023-02-15T05:54:31.895Z,3.45
2023-02-15T05:56:58.854Z,4.11
2023-02-15T05:59:25.758Z,3.75
2023-02-15T06:01:52.575Z,3.95
2023-02-15T06:04:19.499Z,5.11
2023-02-15T06:06:46.405Z,6.22
2023-02-15T06:09:14.297Z,6.18
2023-02-15T06:11:41.486Z,6.39
2023-02-15T06:14:08.308Z,4.52
2023-02-15T06:16:35.076Z,4.09
2023-02-15T06:19:02.875Z,4.30
2023-02-15T06:21:31.344Z,4.83
2023-02-15T06:23:58.588Z,5.09
2023-02-15T06:26:25.552Z,6.12
2023-02-15T06:28:52.448Z,7.01
2023-02-15T06:31:19.481Z,8.56
2023-02-15T06:33:46.420Z,8.53
2023-02-15T06:36:13.754Z,10.18
2023-02-15T06:38:40.699Z,9.42
2023-02-15T06:41:07.620Z,8.25
2023-02-15T06:43:35.337Z,7.11
2023-02-15T06:46:02.510Z,9.05
2023-02-15T06:48:29.510Z,9.60
2023-02-15T06:50:56.378Z,11.82
2023-02-15T06:53:23.323Z,12.36
2023-02-15T06:55:50.316Z,12.91
2023-02-15T06:58:17.455Z,12.94
2023-02-15T07:00:44.274Z,12.77
2023-02-15T07:03:15.365Z,13.13
2023-02-15T07:05:42.227Z,14.95
2023-02-15T07:08:09.117Z,13.52
2023-02-15T07:10:35.990Z,14.43
2023-02-15T07:13:02.849Z,13.93
2023-02-15T07:15:30.681Z,15.04
2023-02-15T07:17:59.677Z,15.07
2023-02-15T07:20:26.776Z,15.39
2023-02-15T07:22:53.630Z,12.91
2023-02-15T07:25:20.726Z,11.87
2023-02-15T07:27:47.923Z,10.24
2023-02-15T07:30:17.082Z,10.01
2023-02-15T07:33:05.071Z,9.26
2023-02-15T07:35:33.143Z,6.99
2023-02-15T07:38:00.034Z,7.99
2023-02-15T07:40:27.197Z,9.08
2023-02-15T07:42:55.708Z,7.59
2023-02-15T07:45:22.940Z,8.72
2023-02-15T07:47:50.056Z,11.10
2023-02-15T07:50:17.062Z,12.57
2023-02-15T07:52:44.013Z,12.81
2023-02-15T07:55:13.822Z,11.35
2023-02-15T07:57:48.241Z,11.82
2023-02-15T08:00:16.425Z,13.12
2023-02-15T08:02:48.329Z,14.22
2023-02-15T08:05:15.344Z,14.53
2023-02-15T08:07:42.195Z,13.50
2023-02-15T08:10:09.296Z,14.67
2023-02-15T08:12:36.205Z,13.15
2023-02-15T08:15:04.123Z,13.18
2023-02-15T08:17:31.009Z,13.07
2023-02-15T08:19:57.871Z,11.17
2023-02-15T08:22:25.626Z,11.00
2023-02-15T08:24:52.445Z,9.87
2023-02-15T08:27:19.330Z,7.07
2023-02-15T08:29:46.204Z,9.07
2023-02-15T08:32:13.450Z,10.68
2023-02-15T08:34:42.860Z,11.17
2023-02-15T08:37:10.471Z,10.69
2023-02-15T08:39:37.905Z,10.89
2023-02-15T08:42:05.001Z,12.30
2023-02-15T08:44:31.934Z,9.90
2023-02-15T08:47:03.889Z,8.21
2023-02-15T08:49:31.025Z,9.25
2023-02-15T08:51:57.859Z,10.27
2023-02-15T08:54:24.899Z,8.29
2023-02-15T08:56:52.011Z,9.32
2023-02-15T08:59:21.748Z,10.24
2023-02-15T09:01:51.117Z,11.06
2023-02-15T09:04:18.400Z,11.46
2023-02-15T09:06:50.230Z,10.85
2023-02-15T09:09:19.166Z,10.32
2023-02-15T09:11:48.833Z,8.92
2023-02-15T09:14:18.343Z,8.92
2023-02-15T09:16:49.689Z,9.73
2023-02-15T09:19:19.006Z,9.68
2023-02-15T09:21:46.479Z,8.05
2023-02-15T09:24:15.520Z,7.73
2023-02-15T09:26:44.670Z,8.03
2023-02-15T09:29:13.400Z,7.96
2023-02-15T09:31:45.473Z,7.26
2023-02-15T09:34:18.310Z,7.00
2023-02-15T09:36:45.922Z,7.35
2023-02-15T09:39:18.604Z,7.73
2023-02-15T09:41:57.550Z,7.25
2023-02-15T09:44:27.327Z,7.45
2023-02-15T09:47:19.218Z,8.06
2023-02-15T09:50:04.521Z,10.44
2023-02-15T09:53:28.719Z,10.49
2023-02-15T09:56:07.493Z,9.57
2023-02-15T09:58:49.495Z,7.95
2023-02-15T10:01:29.841Z,7.53
2023-02-15T10:04:21.645Z,8.73
2023-02-15T10:07:23.243Z,8.69
2023-02-15T10:09:55.846Z,9.40
2023-02-15T10:12:37.539Z,9.95
2023-02-15T10:15:25.422Z,9.19
2023-02-15T10:18:30.720Z,9.22
2023-02-15T10:21:40.415Z,10.48
2023-02-15T10:24:32.068Z,8.88
2023-02-15T10:27:09.014Z,7.67
2023-02-15T10:29:43.426Z,9.21
2023-02-15T10:32:16.668Z,9.04
2023-02-15T10:34:58.351Z,9.30
2023-02-15T10:37:54.672Z,10.55
2023-02-15T10:40:21.612Z,12.10
2023-02-15T10:42:51.367Z,11.00
2023-02-15T10:45:42.977Z,10.59
2023-02-15T10:48:27.919Z,12.68
2023-02-15T10:51:04.361Z,13.11
2023-02-15T10:53:53.118Z,11.74
2023-02-15T10:56:41.248Z,11.27
2023-02-15T10:59:16.547Z,11.83
2023-02-15T11:01:57.264Z,10.72
2023-02-15T11:04:52.375Z,11.74
2023-02-15T11:07:34.843Z,12.96
2023-02-15T11:10:01.707Z,12.18
2023-02-15T11:12:31.965Z,12.54
2023-02-15T11:15:05.577Z,12.33
2023-02-15T11:17:40.751Z,10.08
2023-02-15T11:20:26.790Z,10.76
2023-02-15T11:22:54.529Z,11.14
2023-02-15T11:25:26.961Z,13.25
2023-02-15T11:27:55.617Z,14.97
2023-02-15T11:30:25.071Z,15.10
2023-02-15T11:32:57.231Z,16.16
2023-02-15T11:35:33.518Z,13.30
2023-02-15T11:38:24.506Z,14.11
2023-02-15T11:40:58.578Z,12.43
2023-02-15T11:43:35.810Z,10.77
2023-02-15T11:46:02.845Z,8.68
2023-02-15T11:48:32.852Z,9.37
2023-02-15T11:51:01.213Z,9.85
2023-02-15T11:53:33.094Z,10.49
2023-02-15T11:56:01.515Z,10.11
2023-02-15T11:58:55.784Z,9.48
2023-02-15T12:01:37.924Z,7.92
2023-02-15T12:04:10.506Z,7.92
2023-02-15T12:06:45.402Z,7.69
2023-02-15T12:09:46.930Z,7.55
2023-02-15T12:12:27.379Z,8.85
2023-02-15T12:14:56.612Z,10.90
2023-02-15T12:17:27.030Z,11.09
2023-02-15T12:19:57.707Z,9.91
2023-02-15T12:22:31.442Z,11.26
2023-02-15T12:25:04.909Z,9.69
2023-02-15T12:27:35.951Z,8.89
2023-02-15T12:30:16.160Z,8.94
2023-02-15T12:32:57.567Z,8.94
2023-02-15T12:35:33.709Z,9.27
2023-02-15T12:38:25.419Z,9.26
2023-02-15T12:41:00.452Z,8.46
2023-02-15T12:43:32.451Z,8.30
2023-02-15T12:46:37.918Z,8.37
2023-02-15T12:49:20.454Z,8.06
2023-02-15T12:52:21.241Z,8.38
2023-02-15T12:54:49.279Z,8.29
2023-02-15T12:57:24.399Z,7.68
2023-02-15T12:59:58.034Z,7.69
2023-02-15T13:02:44.024Z,7.54
2023-02-15T13:05:10.800Z,7.58
2023-02-15T13:07:38.233Z,7.57
2023-02-15T13:10:05.872Z,7.15
2023-02-15T13:12:33.166Z,7.00
2023-02-15T13:15:02.703Z,7.11
2023-02-15T13:17:35.572Z,7.28
2023-02-15T13:20:08.669Z,7.39
2023-02-15T13:22:44.770Z,7.46
2023-02-15T13:25:24.286Z,7.13
2023-02-15T13:27:57.913Z,7.14
2023-02-15T13:30:36.500Z,7.31
2023-02-15T13:33:07.128Z,7.65
2023-02-15T13:35:44.759Z,7.88
2023-02-15T13:38:19.137Z,7.71
2023-02-15T13:40:55.243Z,7.28
2023-02-15T13:43:40.611Z,7.43
2023-02-15T13:46:07.505Z,7.52
2023-02-15T13:49:00.495Z,7.32
2023-02-15T13:51:45.557Z,7.38
2023-02-15T13:54:40.042Z,6.85
2023-02-15T13:57:09.994Z,7.05
2023-02-15T13:59:46.229Z,7.25
2023-02-15T14:02:13.024Z,7.26
2023-02-15T14:05:11.157Z,7.46
2023-02-15T14:08:04.053Z,7.04
2023-02-15T14:10:42.960Z,6.85
2023-02-15T14:13:54.405Z,7.03
2023-02-15T14:17:05.742Z,6.94
2023-02-15T14:19:39.191Z,6.95
2023-02-15T14:22:24.282Z,7.03
2023-02-15T14:25:29.884Z,6.69
2023-02-15T14:27:59.957Z,6.78
2023-02-15T14:30:49.718Z,6.87
2023-02-15T14:33:33.232Z,6.96
2023-02-15T14:36:03.977Z,7.02
2023-02-15T14:38:58.692Z,7.00
2023-02-15T14:41:54.523Z,6.66
2023-02-15T14:44:38.851Z,6.72
2023-02-15T14:47:37.836Z,6.83
2023-02-15T14:50:38.474Z,6.96
2023-02-15T14:53:32.049Z,6.95
2023-02-15T14:56:19.282Z,6.69
2023-02-15T14:58:55.073Z,6.70
2023-02-15T15:01:31.980Z,6.74
2023-02-15T15:04:22.762Z,6.75
2023-02-15T15:07:04.921Z,6.73
2023-02-15T15:09:34.778Z,6.59
2023-02-15T15:12:28.368Z,6.56
2023-02-15T15:29:54.419Z,5.62
2023-02-15T15:32:30.166Z,5.71
2023-02-15T15:35:26.237Z,5.91
2023-02-15T15:38:02.077Z,5.86
2023-02-15T15:40:43.186Z,5.93
2023-02-15T15:43:35.031Z,5.98
2023-02-15T15:46:23.073Z,6.06
2023-02-15T15:48:49.981Z,6.03
2023-02-15T15:51:28.354Z,5.95
2023-02-15T15:53:56.244Z,5.83
2023-02-15T15:56:32.374Z,5.92
2023-02-15T15:59:03.284Z,5.98
2023-02-15T16:01:32.531Z,6.02
2023-02-15T16:04:00.358Z,5.81
2023-02-15T16:06:34.185Z,5.53
2023-02-15T16:09:16.750Z,5.49
2023-02-15T16:11:44.363Z,5.41
2023-02-15T16:14:18.408Z,5.13
2023-02-15T16:16:52.298Z,4.83
2023-02-15T16:19:27.018Z,4.78
2023-02-15T16:21:55.336Z,4.70
2023-02-15T16:24:31.746Z,4.38
2023-02-15T16:27:19.712Z,4.25
2023-02-15T16:29:46.852Z,4.17
2023-02-15T16:32:24.318Z,4.21
2023-02-15T16:35:03.181Z,4.30
2023-02-15T16:37:37.668Z,4.18
2023-02-15T16:40:04.613Z,3.97
2023-02-15T16:42:31.468Z,3.98
2023-02-15T16:45:04.288Z,4.11
2023-02-15T16:47:35.105Z,4.04
2023-02-15T16:50:05.582Z,3.79
2023-02-15T16:52:32.954Z,3.95
2023-02-15T16:55:07.520Z,3.96
2023-02-15T16:57:38.422Z,4.02
2023-02-15T17:00:08.841Z,3.86
2023-02-15T17:02:56.523Z,3.86
2023-02-15T17:05:23.713Z,3.94
2023-02-15T17:08:07.961Z,4.13
2023-02-15T17:10:37.884Z,4.18
2023-02-15T17:13:12.770Z,4.23
2023-02-15T17:15:59.438Z,4.00
2023-02-15T17:18:44.467Z,3.82
2023-02-15T17:21:14.975Z,3.85
2023-02-15T17:23:45.991Z,3.91
2023-02-15T17:26:20.699Z,3.69
2023-02-15T17:29:02.438Z,3.60
2023-02-15T17:31:34.346Z,3.66
2023-02-15T17:34:02.714Z,3.69
2023-02-15T17:36:31.553Z,3.68
2023-02-15T17:38:58.485Z,3.63
2023-02-15T17:41:35.213Z,3.68
2023-02-15T17:44:04.083Z,3.76
2023-02-15T17:46:35.946Z,3.86
2023-02-15T17:49:03.601Z,3.90
2023-02-15T17:51:32.241Z,3.77
2023-02-15T17:54:17.753Z,3.58
2023-02-15T17:56:44.666Z,3.69
2023-02-15T17:59:12.614Z,3.59
2023-02-15T18:02:04.609Z,3.47
2023-02-15T18:04:55.698Z,3.41
2023-02-15T18:07:41.141Z,3.52
2023-02-15T18:10:37.990Z,3.41
2023-02-15T18:13:05.146Z,3.33
2023-02-15T18:15:32.224Z,3.46
2023-02-15T18:17:59.217Z,3.59
2023-02-15T18:20:30.882Z,3.66
2023-02-15T18:22:57.770Z,3.66
2023-02-15T18:25:25.773Z,3.50
2023-02-15T18:27:54.905Z,3.50
2023-02-15T18:30:24.567Z,3.53
2023-02-15T18:32:54.102Z,3.58
2023-02-15T18:35:24.734Z,3.33
2023-02-15T18:37:53.535Z,3.33
2023-02-15T18:40:23.126Z,3.36
2023-02-15T18:42:50.053Z,3.36
2023-02-15T18:45:28.769Z,3.15
2023-02-15T18:47:55.760Z,3.17
2023-02-15T18:50:24.158Z,3.23
2023-02-15T18:52:51.664Z,3.36
2023-02-15T18:55:21.265Z,3.45
2023-02-15T18:57:51.150Z,3.67
2023-02-15T19:00:19.555Z,3.52
2023-02-15T19:02:46.931Z,3.47
2023-02-15T19:05:15.025Z,3.49
2023-02-15T19:07:43.690Z,3.46
2023-02-15T19:10:16.795Z,3.25
2023-02-15T19:12:44.332Z,3.34
2023-02-15T19:15:19.357Z,3.45
2023-02-15T19:17:46.877Z,3.55
2023-02-15T19:20:19.648Z,3.31
2023-02-15T19:22:51.964Z,3.27
2023-02-15T19:25:30.362Z,3.31
2023-02-15T19:27:58.413Z,3.17
2023-02-15T19:30:30.810Z,2.94
2023-02-15T19:32:59.016Z,2.95
2023-02-15T19:35:30.476Z,2.94
2023-02-15T19:37:59.696Z,2.62
2023-02-15T19:40:29.719Z,2.47
2023-02-15T19:42:57.452Z,2.54
2023-02-15T19:45:27.613Z,2.48
2023-02-15T19:47:55.308Z,2.35
2023-02-15T19:50:28.384Z,2.32
2023-02-15T19:52:57.543Z,2.38
2023-02-15T19:55:25.721Z,2.38
2023-02-15T19:57:54.226Z,2.17
2023-02-15T20:00:24.313Z,2.19
2023-02-15T20:02:51.787Z,2.31
2023-02-15T20:05:19.664Z,2.29
2023-02-15T20:07:52.097Z,2.07
2023-02-15T20:10:23.234Z,2.14
2023-02-15T20:12:50.741Z,2.13
2023-02-15T20:15:28.701Z,2.24
2023-02-15T20:17:57.304Z,2.20
2023-02-15T20:20:30.387Z,2.22
2023-02-15T20:22:57.509Z,2.29
2023-02-15T20:25:27.944Z,2.29
2023-02-15T20:27:55.804Z,2.23
2023-02-15T20:30:25.327Z,2.38
2023-02-15T20:32:52.289Z,2.48
2023-02-15T20:35:24.489Z,2.23
2023-02-15T20:37:56.355Z,2.21
2023-02-15T20:40:26.875Z,2.17
2023-02-15T20:42:53.766Z,2.17
2023-02-15T20:45:26.610Z,2.09
2023-02-15T20:47:54.050Z,2.16
2023-02-15T20:50:26.492Z,2.20
2023-02-15T20:52:55.968Z,2.04
2023-02-15T20:55:25.827Z,2.07
2023-02-15T20:57:53.044Z,1.91
2023-02-15T21:00:29.422Z,2.00
2023-02-15T21:02:58.926Z,1.70
2023-02-15T21:05:32.846Z,1.70
2023-02-15T21:08:00.416Z,1.73
2023-02-15T21:10:30.130Z,1.69
2023-02-15T21:12:59.900Z,1.46
2023-02-15T21:15:35.897Z,1.50
2023-02-15T21:18:05.773Z,1.44
2023-02-15T21:20:35.369Z,1.23
2023-02-15T21:23:05.105Z,1.21
2023-02-15T21:25:36.760Z,1.14
2023-02-15T21:28:05.640Z,1.28
2023-02-15T21:30:32.545Z,1.12
2023-02-15T21:32:59.408Z,1.13
2023-02-15T21:35:28.357Z,1.21
2023-02-15T21:37:56.401Z,1.13
2023-02-15T21:40:29.439Z,1.03
2023-02-15T21:43:16.504Z,1.15
2023-02-15T21:45:58.504Z,1.15
2023-02-15T21:48:25.577Z,1.01
2023-02-15T21:51:11.372Z,1.06
2023-02-15T21:53:45.957Z,1.07
2023-02-15T21:56:14.584Z,1.03
2023-02-15T21:58:41.434Z,0.97
2023-02-15T22:01:20.567Z,1.04
2023-02-15T22:03:47.730Z,1.13
2023-02-15T22:06:14.644Z,1.05
2023-02-15T22:08:41.596Z,1.06
2023-02-15T22:11:13.904Z,1.06
2023-02-15T22:13:42.089Z,1.20
2023-02-15T22:16:22.013Z,1.13
2023-02-15T22:18:49.277Z,1.12
2023-02-15T22:21:19.595Z,1.13
2023-02-15T22:23:47.308Z,1.11
2023-02-15T22:26:25.096Z,0.99
2023-02-15T22:28:52.196Z,0.96
2023-02-15T22:31:21.461Z,1.06
2023-02-15T22:33:49.899Z,1.01
2023-02-15T22:36:30.940Z,1.00
2023-02-15T22:38:57.976Z,1.04
2023-02-15T22:41:29.127Z,1.20
2023-02-15T22:43:57.114Z,1.09
2023-02-15T22:46:25.348Z,1.11
2023-02-15T22:48:52.559Z,1.19
2023-02-15T22:51:23.572Z,1.12
2023-02-15T22:53:52.383Z,1.07
2023-02-15T22:56:26.743Z,1.05
2023-02-15T22:58:57.944Z,1.11
2023-02-15T23:01:31.808Z,0.69
2023-02-15T23:04:01.191Z,0.70
2023-02-15T23:06:29.715Z,0.82
2023-02-15T23:08:57.195Z,0.74
2023-02-15T23:11:24.099Z,0.66
2023-02-15T23:13:51.669Z,0.64
2023-02-15T23:16:18.954Z,0.71
2023-02-15T23:18:47.338Z,0.68
2023-02-15T23:21:32.947Z,0.62
2023-02-15T23:24:15.883Z,0.66
2023-02-15T23:26:42.711Z,0.61
2023-02-15T23:29:14.992Z,0.62
2023-02-15T23:31:44.204Z,0.64
2023-02-15T23:34:17.688Z,0.74
2023-02-15T23:36:45.154Z,0.48
2023-02-15T23:39:36.619Z,0.54
2023-02-15T23:42:26.290Z,0.61
2023-02-15T23:44:53.110Z,0.53
2023-02-15T23:47:44.001Z,0.53
2023-02-15T23:50:20.609Z,0.53
2023-02-15T23:52:48.013Z,0.54
2023-02-15T23:55:15.872Z,0.53
2023-02-15T23:57:44.123Z,0.47
